Les articles d'ExpertMaritime.pro..


Votre expert maritime indépendant Xavier Braive est disponible sur la zone de Meschers-sur-Gironde - Port de Meschers - 17132

(Charente-Maritime - Poitou-Charentes)


Voir plan
Situation :

Le Port de Meschers, situé sur la rive droite de la Gironde près de son embouchure, est abrité par tous temps.

Il comprend :

- Un avant-chenal de 250 m de long, large de 8 m qui fait un angle de 8° W avec le Nord vrai, creusé à la cote + 0,50 m ; le vieux havre d’échouage ou « chenal » équipé de quai, cales en 1861.

- Un bassin d’échouage créé 1985 de 121 places sur pontons flottants, creuse à la cote + 1 m.

- Un bassin à flot mis en service en 1990, de 121 places à l’origine, 116 aujourd’hui (on y a placé des bateaux plus grands que prévu), en arrière d’une porte-écluse, T.E. 2,50 m ; le seuil de l’écluse est à la cote + 2 m ; les portes ouvrent quand la mer atteint le niveau + 3,50 m, avec 1,50 m d’eau sur le seuil (les cotes se réfèrent au niveau 0 des cartes marines).
Lat. 45° 33?, 3 N – Long. 00° 56?, 6 W ; carte SHOM 7029.
Distances : LE VERDON : 3,5 M. – ROYAN : 5 M. – PAUILLAC : 23 M. – BORDEAUX : 48 M.

- Une zone de mouillage, ouverte d’Avril à Septembre, de 22 corps morts, sur les vases à l’est du chenal d’accès.

Pratique :

Ville de Meschers : Location des anneaux.
Capitainerie, Tél.: 05.46.02.56.89 – VHF canal 9 –
n° de Fax 05 46 02 34 77 - GSM 06 15 11 23 10
Monsieur KERDUDOU est le capitaine assermenté du port.

SAUVETAGE :
CROSS ETEL, Tél.: O2 .97.553.535.
De juin à septembre Poste de Secours – Plage des Nonnes,
Tél. : 05.46.02.72.92, situé à 1 mille au nord du Port.
Météo affichée à la Capitainerie.
Météo locale sur la zone Port de Meschers
Heure (UTC) Dir.Vent Vit.Vent (nds) Force (Bft) T°min T°max P (mb) Hum.Rel.
20/02/2024 - 21:00:00 au 21/02/2024 - 00:00:00 133° (SE) 6 2 8°C 9°C 1028 85 %
21/02/2024 - 00:00:00 au 21/02/2024 - 03:00:00 156° (SSE) 7 3 8°C 9°C 1027 85 %
21/02/2024 - 03:00:00 au 21/02/2024 - 06:00:00 167° (SSE) 7 3 8°C 9°C 1025 84 %
21/02/2024 - 06:00:00 au 21/02/2024 - 09:00:00 185° (S) 8 3 10°C 10°C 1023 79 %
21/02/2024 - 09:00:00 au 21/02/2024 - 12:00:00 209° (SSW) 10 3 12°C 12°C 1022 87 %
21/02/2024 - 12:00:00 au 21/02/2024 - 15:00:00 216° (SW) 15 4 13°C 13°C 1019 80 %
21/02/2024 - 15:00:00 au 21/02/2024 - 18:00:00 215° (SW) 15 4 12°C 12°C 1018 75 %
21/02/2024 - 18:00:00 au 21/02/2024 - 21:00:00 228° (SW) 17 5 13°C 13°C 1017 81 %
21/02/2024 - 21:00:00 au 22/02/2024 - 00:00:00 208° (SSW) 14 4 12°C 12°C 1014 85 %
22/02/2024 - 00:00:00 au 22/02/2024 - 03:00:00 191° (S) 13 4 12°C 12°C 1010 81 %
22/02/2024 - 03:00:00 au 22/02/2024 - 06:00:00 193° (SSW) 12 4 12°C 12°C 1007 82 %
22/02/2024 - 06:00:00 au 22/02/2024 - 09:00:00 204° (SSW) 16 4 12°C 12°C 1004 84 %
22/02/2024 - 09:00:00 au 22/02/2024 - 12:00:00 217° (SW) 26 6 12°C 12°C 1001 87 %
22/02/2024 - 12:00:00 au 22/02/2024 - 15:00:00 275° (W) 25 6 10°C 10°C 1004 81 %
22/02/2024 - 15:00:00 au 22/02/2024 - 18:00:00 285° (WNW) 20 5 9°C 9°C 1006 68 %
22/02/2024 - 18:00:00 au 22/02/2024 - 21:00:00 270° (W) 16 4 9°C 9°C 1006 63 %
22/02/2024 - 21:00:00 au 23/02/2024 - 00:00:00 256° (WSW) 17 5 9°C 9°C 1005 66 %
23/02/2024 - 00:00:00 au 23/02/2024 - 03:00:00 240° (WSW) 19 5 7°C 7°C 1002 85 %
23/02/2024 - 03:00:00 au 23/02/2024 - 06:00:00 263° (W) 18 5 9°C 9°C 1001 69 %
23/02/2024 - 06:00:00 au 23/02/2024 - 09:00:00 258° (WSW) 23 6 8°C 8°C 1001 73 %
23/02/2024 - 09:00:00 au 23/02/2024 - 12:00:00 270° (W) 22 6 9°C 9°C 1001 60 %
23/02/2024 - 12:00:00 au 23/02/2024 - 15:00:00 260° (W) 25 6 9°C 9°C 1000 65 %
23/02/2024 - 15:00:00 au 23/02/2024 - 18:00:00 274° (W) 19 5 6°C 6°C 1000 82 %
23/02/2024 - 18:00:00 au 23/02/2024 - 21:00:00 280° (W) 20 5 7°C 7°C 1000 71 %
23/02/2024 - 21:00:00 au 24/02/2024 - 00:00:00 270° (W) 16 4 7°C 7°C 999 71 %
24/02/2024 - 00:00:00 au 24/02/2024 - 03:00:00 296° (WNW) 13 4 6°C 6°C 999 84 %
24/02/2024 - 03:00:00 au 24/02/2024 - 06:00:00 277° (W) 11 4 6°C 6°C 1000 76 %
24/02/2024 - 06:00:00 au 24/02/2024 - 09:00:00 249° (WSW) 13 4 7°C 7°C 1001 88 %
24/02/2024 - 09:00:00 au 24/02/2024 - 12:00:00 301° (WNW) 17 5 9°C 9°C 1003 77 %
24/02/2024 - 12:00:00 au 24/02/2024 - 15:00:00 285° (WNW) 15 4 10°C 10°C 1005 70 %
24/02/2024 - 15:00:00 au 24/02/2024 - 18:00:00 276° (W) 14 4 8°C 8°C 1006 72 %
24/02/2024 - 18:00:00 au 24/02/2024 - 21:00:00 267° (W) 14 4 9°C 9°C 1007 74 %
24/02/2024 - 21:00:00 au 25/02/2024 - 00:00:00 247° (WSW) 13 4 8°C 8°C 1006 77 %
25/02/2024 - 00:00:00 au 25/02/2024 - 03:00:00 212° (SSW) 10 3 8°C 8°C 1004 81 %
25/02/2024 - 03:00:00 au 25/02/2024 - 06:00:00 182° (S) 11 4 7°C 7°C 1001 89 %
25/02/2024 - 06:00:00 au 25/02/2024 - 09:00:00 159° (SSE) 17 5 6°C 6°C 998 89 %
25/02/2024 - 09:00:00 au 25/02/2024 - 12:00:00 148° (SSE) 26 6 5°C 5°C 991 92 %
25/02/2024 - 12:00:00 au 25/02/2024 - 15:00:00 215° (SW) 24 6 13°C 13°C 985 87 %
25/02/2024 - 15:00:00 au 25/02/2024 - 18:00:00 280° (W) 41 9 8°C 8°C 985 88 %
25/02/2024 - 18:00:00 au 25/02/2024 - 21:00:00 282° (WNW) 26 6 9°C 9°C 994 79 %
openweathermap
Ces informations sont partiellement extraites de Wikipedia, et des sites pertinents pour cette zone. Compilation d'informations de Xavier Braive.
Xavier Braive, Expert Maritime Plaisance se déplace sur Port de Meschers, Meschers-sur-Gironde, 17132, Charente-Maritime

Welcome to Cross-Channel yachtmen !

we can deliver survey reports in english, in case of dammage or prior to buy / sell a boat in France (pre-purchase survey), and more specifically on the Atlantic coast.

Uw onafhankelijk jachtexpert

verkrijkbaar op de Atlantische kust, bij aankoop of reparatie van jachten (metaal, polyester of composiet). Rapporten in Nederlands

BRAIVE, Xavier
Xavier Braive
Expert Maritime
Nouvelle Aquitaine
France
07 64 82 25 44